Time;durP1;ratioP1;P1;durP2;ratioP2;P2;SDS_P1;SDS_P2;PMS_P1;PMS_P2;Temp;Humidity;BMP_temperature;BMP_pressure;BME280_temperature;BME280_humidity;BME280_pressure;Samples;Min_cycle;Max_cycle;Signal;HPM_P1;HPM_P2
2022/07/12 00:02:13;;;;;;;16.57;7.43;;;23.90;59.10;;;;;;5109473;28;20262;-88
2022/07/12 00:04:41;;;;;;;10.80;5.57;;;23.80;59.60;;;;;;5112398;28;20205;-89
2022/07/12 00:07:08;;;;;;;9.90;5.33;;;23.80;59.10;;;;;;5105061;28;20888;-91
2022/07/12 00:09:37;;;;;;;9.23;5.00;;;23.80;59.40;;;;;;5109599;28;20197;-92
2022/07/12 00:12:18;;;;;;;9.40;5.47;;;23.70;59.80;;;;;;5115982;28;20198;-92
2022/07/12 00:14:51;;;;;;;12.50;6.13;;;23.70;60.20;;;;;;5098088;28;20225;-92
2022/07/12 00:17:18;;;;;;;13.97;6.77;;;23.60;59.70;;;;;;5109487;28;20228;-92
2022/07/12 00:19:46;;;;;;;9.73;5.57;;;23.70;59.50;;;;;;5111958;28;20276;-90
2022/07/12 00:22:29;;;;;;;12.40;6.40;;;23.60;59.50;;;;;;5120588;28;20216;-89
2022/07/12 00:24:57;;;;;;;10.43;5.30;;;23.60;60.90;;;;;;5118963;28;20703;-91
2022/07/12 00:27:25;;;;;;;9.97;5.43;;;23.50;60.20;;;;;;5113593;28;20277;-93
2022/07/12 00:29:52;;;;;;;13.73;6.57;;;23.50;60.00;;;;;;5100917;28;20199;-92
2022/07/12 00:32:19;;;;;;;12.33;6.70;;;23.40;59.90;;;;;;5092447;28;20805;-92
2022/07/12 00:35:02;;;;;;;12.03;6.17;;;23.50;60.30;;;;;;5106960;28;20627;-93
2022/07/12 00:37:29;;;;;;;12.40;6.70;;;23.40;61.40;;;;;;5112668;28;20736;-90
2022/07/12 00:39:58;;;;;;;9.70;5.80;;;23.40;60.60;;;;;;5099935;28;20294;-93
2022/07/12 00:42:25;;;;;;;15.80;7.37;;;23.40;61.00;;;;;;5105827;28;20211;-92
2022/07/12 00:44:53;;;;;;;10.67;5.97;;;23.30;60.50;;;;;;5108142;28;20633;-91
2022/07/12 00:47:33;;;;;;;16.47;7.57;;;23.30;60.70;;;;;;5102363;28;20206;-91
2022/07/12 00:50:18;;;;;;;8.23;5.47;;;23.30;60.90;;;;;;5107201;28;20202;-90
2022/07/12 00:52:48;;;;;;;12.27;6.70;;;23.20;60.70;;;;;;5102515;28;20290;-91
2022/07/12 00:55:19;;;;;;;16.70;7.83;;;23.20;60.60;;;;;;5107334;28;20886;-91
2022/07/12 00:57:47;;;;;;;18.03;8.33;;;23.20;61.30;;;;;;5107682;28;20678;-92
2022/07/12 01:00:18;;;;;;;11.73;6.63;;;23.10;61.10;;;;;;5108797;28;20304;-91
2022/07/12 01:02:46;;;;;;;17.17;7.70;;;23.10;61.40;;;;;;5108803;28;20637;-92
2022/07/12 01:05:15;;;;;;;13.77;7.30;;;23.10;61.40;;;;;;5104753;28;20256;-91
2022/07/12 01:10:31;;;;;;;14.20;6.80;;;23.00;61.70;;;;;;5095945;28;20219;-91
2022/07/12 01:12:59;;;;;;;22.23;9.47;;;23.00;61.60;;;;;;5089302;28;20199;-92
2022/07/12 01:15:30;;;;;;;15.40;7.43;;;23.00;61.60;;;;;;5109167;28;20225;-91
2022/07/12 01:17:59;;;;;;;26.07;10.57;;;22.90;61.90;;;;;;5107285;28;20233;-90
2022/07/12 01:20:26;;;;;;;10.77;6.40;;;22.90;62.00;;;;;;5108235;28;20280;-92
2022/07/12 01:23:10;;;;;;;12.10;6.70;;;22.90;62.20;;;;;;5107413;28;20802;-91
2022/07/12 01:25:38;;;;;;;12.93;7.33;;;22.90;63.10;;;;;;5109545;28;20205;-91
2022/07/12 01:28:06;;;;;;;15.60;6.80;;;22.90;62.60;;;;;;5105363;28;20212;-90
2022/07/12 01:30:43;;;;;;;14.80;7.07;;;22.80;62.60;;;;;;5108274;28;20661;-91
2022/07/12 01:33:10;;;;;;;13.27;6.97;;;22.80;62.60;;;;;;5096827;28;20271;-90
2022/07/12 01:35:38;;;;;;;17.37;7.83;;;22.80;62.90;;;;;;5098541;28;20268;-90
2022/07/12 01:38:31;;;;;;;18.00;8.80;;;22.70;62.90;;;;;;5096506;28;20311;-90
2022/07/12 01:41:05;;;;;;;14.30;7.37;;;22.70;64.10;;;;;;5097397;28;20242;-90
2022/07/12 01:46:13;;;;;;;20.87;9.00;;;22.70;62.80;;;;;;5097637;28;20211;-91
2022/07/12 01:48:40;;;;;;;16.90;8.20;;;22.70;62.90;;;;;;5096806;28;20225;-89
2022/07/12 01:51:07;;;;;;;13.83;7.47;;;22.60;62.80;;;;;;5098321;28;20268;-90
2022/07/12 01:53:37;;;;;;;15.33;8.23;;;22.60;64.00;;;;;;5099035;28;20253;-90
2022/07/12 01:56:04;;;;;;;14.10;8.27;;;22.60;63.20;;;;;;5099453;28;20754;-91
2022/07/12 02:01:13;;;;;;;21.43;9.83;;;22.60;63.10;;;;;;5098770;28;20286;-91
2022/07/12 02:03:40;;;;;;;13.07;7.20;;;22.60;63.40;;;;;;5100272;28;20232;-90
2022/07/12 02:06:07;;;;;;;15.07;8.13;;;22.60;63.60;;;;;;5098568;28;20276;-91
2022/07/12 02:08:35;;;;;;;14.13;7.97;;;22.50;63.70;;;;;;5098548;28;20985;-91
2022/07/12 02:11:02;;;;;;;12.50;7.20;;;22.60;64.00;;;;;;5098558;28;20231;-91
2022/07/12 02:13:29;;;;;;;16.47;8.37;;;22.60;64.00;;;;;;5097656;28;20639;-90
2022/07/12 02:16:02;;;;;;;16.97;8.63;;;22.50;63.90;;;;;;5096426;28;20202;-91
2022/07/12 02:18:29;;;;;;;16.87;8.37;;;22.50;64.50;;;;;;5098923;28;20286;-91
2022/07/12 02:20:56;;;;;;;15.50;8.57;;;22.50;64.00;;;;;;5100188;28;20191;-90
2022/07/12 02:23:23;;;;;;;14.60;8.37;;;22.50;64.10;;;;;;5099156;28;20223;-90
2022/07/12 02:25:55;;;;;;;13.90;7.90;;;22.50;64.10;;;;;;5100177;28;20601;-90
2022/07/12 02:28:39;;;;;;;22.20;10.50;;;22.40;64.40;;;;;;5099678;28;20201;-92
2022/07/12 02:31:06;;;;;;;14.67;7.90;;;22.40;64.80;;;;;;5099376;28;20307;-90
2022/07/12 02:33:36;;;;;;;12.13;6.97;;;22.40;63.70;;;;;;5092149;28;20304;-92
2022/07/12 02:36:04;;;;;;;13.30;7.40;;;22.40;64.00;;;;;;5091197;28;20213;-90
2022/07/12 02:38:34;;;;;;;18.10;8.30;;;22.40;64.10;;;;;;5108863;28;20358;-90
2022/07/12 02:41:02;;;;;;;13.63;8.13;;;22.40;64.50;;;;;;5117308;28;20215;-89
2022/07/12 02:43:38;;;;;;;16.33;8.17;;;22.30;64.40;;;;;;5123600;28;20207;-90
2022/07/12 02:46:07;;;;;;;11.50;7.70;;;22.30;64.60;;;;;;5121389;28;20205;-90
2022/07/12 02:48:59;;;;;;;13.73;7.90;;;22.30;64.10;;;;;;5098997;28;20198;-91
2022/07/12 02:51:26;;;;;;;14.33;8.20;;;22.30;64.70;;;;;;5096000;28;20202;-90
2022/07/12 02:53:56;;;;;;;14.37;8.33;;;22.30;63.90;;;;;;5107490;28;20202;-90
2022/07/12 02:56:27;;;;;;;17.33;9.00;;;22.20;64.10;;;;;;5110049;28;20207;-90
2022/07/12 02:58:55;;;;;;;14.37;8.03;;;22.20;64.00;;;;;;5109407;28;20226;-90
2022/07/12 03:01:28;;;;;;;24.60;11.47;;;22.20;63.80;;;;;;5116662;28;20192;-88
2022/07/12 03:03:56;;;;;;;13.00;7.97;;;22.20;64.20;;;;;;5119949;28;20321;-91
2022/07/12 03:06:26;;;;;;;16.63;9.20;;;22.20;63.90;;;;;;5113864;28;20198;-91
2022/07/12 03:08:53;;;;;;;15.77;9.00;;;22.20;64.20;;;;;;5092587;28;20636;-90
2022/07/12 03:11:41;;;;;;;17.87;8.93;;;22.20;64.20;;;;;;5089990;28;20198;-90
2022/07/12 03:14:08;;;;;;;15.03;9.17;;;22.10;64.70;;;;;;5112166;28;20230;-90
2022/07/12 03:16:35;;;;;;;15.57;8.77;;;22.20;64.40;;;;;;5123032;28;20286;-91
2022/07/12 03:19:03;;;;;;;14.37;8.27;;;22.10;64.60;;;;;;5127611;28;20290;-91
2022/07/12 03:21:33;;;;;;;14.03;7.63;;;22.10;64.70;;;;;;5105762;28;20214;-92
2022/07/12 03:24:00;;;;;;;15.60;8.50;;;22.10;65.10;;;;;;5103783;28;20226;-90
2022/07/12 03:26:38;;;;;;;14.83;8.80;;;22.10;64.90;;;;;;5111257;28;20202;-90
2022/07/12 03:29:07;;;;;;;13.27;7.83;;;22.00;64.90;;;;;;5104746;28;20275;-90
2022/07/12 03:31:34;;;;;;;16.13;8.93;;;22.00;65.00;;;;;;5110651;28;20770;-91
2022/07/12 03:34:01;;;;;;;12.80;7.60;;;22.00;65.00;;;;;;5108132;28;20207;-91
2022/07/12 03:36:41;;;;;;;14.73;8.00;;;21.90;64.90;;;;;;5110521;28;20254;-89
2022/07/12 03:41:58;;;;;;;17.53;8.80;;;21.80;64.90;;;;;;5087231;28;20212;-89
2022/07/12 03:44:26;;;;;;;17.63;8.50;;;21.80;65.00;;;;;;5105291;28;20194;-90
2022/07/12 03:46:53;;;;;;;16.00;8.50;;;21.80;65.30;;;;;;5096174;28;20237;-90
2022/07/12 03:49:20;;;;;;;23.20;10.67;;;21.80;65.10;;;;;;5108306;28;20261;-90
2022/07/12 03:51:47;;;;;;;17.47;8.83;;;21.80;65.30;;;;;;5107757;28;20275;-90
2022/07/12 03:54:14;;;;;;;16.77;8.90;;;21.70;65.30;;;;;;5106011;28;20284;-90
2022/07/12 03:59:29;;;;;;;19.83;9.47;;;21.70;65.40;;;;;;5088768;28;20234;-91
2022/07/12 04:01:56;;;;;;;16.67;8.23;;;21.60;65.50;;;;;;5090020;28;20226;-90
2022/07/12 04:04:23;;;;;;;14.57;7.73;;;21.60;65.40;;;;;;5107494;28;20220;-92
2022/07/12 04:06:50;;;;;;;15.93;8.43;;;21.60;65.60;;;;;;5107488;28;20687;-91
2022/07/12 04:09:17;;;;;;;22.57;10.47;;;21.50;65.60;;;;;;5105321;28;20622;-90
2022/07/12 04:11:46;;;;;;;16.13;8.83;;;21.50;65.80;;;;;;5109323;28;20730;-90
2022/07/12 04:14:13;;;;;;;20.37;10.27;;;21.50;66.20;;;;;;5106310;28;20461;-90
2022/07/12 04:16:41;;;;;;;14.37;8.83;;;21.50;65.70;;;;;;5108778;28;20206;-90
2022/07/12 04:19:09;;;;;;;20.67;10.77;;;21.50;65.70;;;;;;5106684;28;21036;-91
2022/07/12 04:21:36;;;;;;;17.20;9.07;;;21.50;66.20;;;;;;5108963;28;20257;-91
2022/07/12 04:24:04;;;;;;;15.70;8.70;;;21.50;66.60;;;;;;5101967;28;20263;-92
2022/07/12 04:26:31;;;;;;;14.43;8.30;;;21.50;66.80;;;;;;5109592;28;20564;-91
2022/07/12 04:28:58;;;;;;;14.67;8.40;;;21.50;66.80;;;;;;5107484;28;20281;-91
2022/07/12 04:31:25;;;;;;;17.43;8.77;;;21.50;66.80;;;;;;5107398;28;20226;-91
2022/07/12 04:33:54;;;;;;;16.13;8.17;;;21.50;66.80;;;;;;5109391;28;20214;-91
2022/07/12 04:36:21;;;;;;;14.67;8.13;;;21.50;66.80;;;;;;5108979;28;20204;-89
2022/07/12 04:38:48;;;;;;;15.07;8.23;;;21.50;66.50;;;;;;5109327;28;20282;-90
2022/07/12 04:41:16;;;;;;;12.90;7.87;;;21.50;66.70;;;;;;5103145;28;20208;-90
2022/07/12 04:43:44;;;;;;;14.90;8.67;;;21.50;66.40;;;;;;5108750;28;20625;-90
2022/07/12 04:46:11;;;;;;;15.07;8.23;;;21.50;66.40;;;;;;5107707;28;20636;-91
2022/07/12 04:48:41;;;;;;;14.93;8.47;;;21.50;66.80;;;;;;5107072;28;20219;-90
2022/07/12 04:51:12;;;;;;;21.27;10.77;;;21.50;66.80;;;;;;5107862;28;20673;-90
2022/07/12 04:53:39;;;;;;;17.53;9.80;;;21.50;67.40;;;;;;5105491;28;20202;-90
2022/07/12 04:56:06;;;;;;;16.17;9.47;;;21.60;66.60;;;;;;5109198;28;20255;-90
2022/07/12 05:01:16;;;;;;;16.67;9.47;;;21.60;66.60;;;;;;5087141;28;20225;-90
2022/07/12 05:03:43;;;;;;;15.03;8.73;;;21.60;66.90;;;;;;5107059;28;20294;-89
2022/07/12 05:06:11;;;;;;;19.57;10.47;;;21.60;67.40;;;;;;5108763;28;20259;-91
2022/07/12 05:08:38;;;;;;;15.97;9.60;;;21.60;67.50;;;;;;5106835;28;20294;-90
2022/07/12 05:11:05;;;;;;;16.27;9.20;;;21.60;67.50;;;;;;5104480;28;20371;-90
2022/07/12 05:13:33;;;;;;;18.17;9.80;;;21.60;67.10;;;;;;5107271;28;20206;-92
2022/07/12 05:16:00;;;;;;;16.03;9.07;;;21.60;66.90;;;;;;5102265;28;20195;-91
2022/07/12 05:18:27;;;;;;;17.20;9.07;;;21.60;66.90;;;;;;5108765;28;20225;-90
2022/07/12 05:20:55;;;;;;;16.77;9.83;;;21.60;67.00;;;;;;5108538;28;20210;-90
2022/07/12 05:23:26;;;;;;;21.90;10.80;;;21.60;67.50;;;;;;5111110;28;20198;-90
2022/07/12 05:25:53;;;;;;;10.10;7.30;;;21.60;67.50;;;;;;5104568;28;20519;-91
2022/07/12 05:28:20;;;;;;;14.17;8.53;;;21.60;66.90;;;;;;5107368;28;20198;-91
2022/07/12 05:31:05;;;;;;;13.83;8.47;;;21.60;67.00;;;;;;5119595;28;20204;-90
2022/07/12 05:33:32;;;;;;;23.77;11.33;;;21.60;67.50;;;;;;5126272;28;20235;-90
2022/07/12 05:36:01;;;;;;;15.50;9.43;;;21.60;67.20;;;;;;5114219;28;20206;-89
2022/07/12 05:38:29;;;;;;;21.83;10.80;;;21.60;67.40;;;;;;5109373;28;20743;-90
2022/07/12 05:40:59;;;;;;;20.53;10.77;;;21.60;67.50;;;;;;5113397;28;20689;-89
2022/07/12 05:43:26;;;;;;;13.17;7.83;;;21.60;67.70;;;;;;5114574;28;20265;-90
2022/07/12 05:45:54;;;;;;;16.57;9.47;;;21.60;67.50;;;;;;5107565;28;20203;-88
2022/07/12 05:48:24;;;;;;;17.17;9.20;;;21.60;67.60;;;;;;5109904;28;20202;-90
2022/07/12 05:53:55;;;;;;;15.70;9.87;;;21.60;68.90;;;;;;5107907;28;20240;-90
2022/07/12 05:59:03;;;;;;;15.27;8.93;;;21.70;68.30;;;;;;5110696;28;20227;-90
2022/07/12 06:01:40;;;;;;;23.83;11.83;;;21.70;68.20;;;;;;5114180;28;20638;-90
2022/07/12 06:04:07;;;;;;;15.00;8.90;;;21.80;69.40;;;;;;5112513;28;20633;-90
2022/07/12 06:06:47;;;;;;;18.33;9.30;;;21.80;68.60;;;;;;5113200;28;20301;-91
2022/07/12 06:09:48;;;;;;;18.60;9.83;;;21.70;69.20;;;;;;5112080;28;20321;-90
2022/07/12 06:12:18;;;;;;;15.60;9.30;;;21.80;69.40;;;;;;5098712;28;20233;-90
2022/07/12 06:14:45;;;;;;;14.63;9.37;;;21.80;69.40;;;;;;5110900;28;20645;-89
2022/07/12 06:17:12;;;;;;;16.13;9.00;;;21.80;69.10;;;;;;5109925;28;20654;-90
2022/07/12 06:19:39;;;;;;;19.30;9.50;;;21.90;69.20;;;;;;5111972;28;20283;-90
2022/07/12 06:22:06;;;;;;;18.33;9.90;;;21.90;69.20;;;;;;5111725;28;20238;-89
2022/07/12 06:25:12;;;;;;;16.90;8.83;;;21.90;69.40;;;;;;5110916;28;20313;-89
2022/07/12 06:27:41;;;;;;;14.97;9.03;;;21.90;70.70;;;;;;5108796;28;20601;-90
2022/07/12 06:30:18;;;;;;;17.67;9.73;;;22.00;70.10;;;;;;5112563;28;20281;-92
2022/07/12 06:32:46;;;;;;;23.40;11.97;;;22.00;70.80;;;;;;5104859;28;20233;-90
2022/07/12 06:35:14;;;;;;;19.27;10.13;;;22.10;70.30;;;;;;5093226;28;20249;-92
2022/07/12 06:37:41;;;;;;;19.03;9.73;;;22.10;70.40;;;;;;5090509;28;20298;-90
2022/07/12 06:40:09;;;;;;;13.70;9.30;;;22.20;70.70;;;;;;5090275;28;20691;-91
2022/07/12 06:42:37;;;;;;;16.83;9.13;;;22.20;71.00;;;;;;5092465;28;20210;-91
2022/07/12 06:45:07;;;;;;;13.60;9.47;;;22.30;70.80;;;;;;5091498;28;20206;-92
2022/07/12 06:47:34;;;;;;;21.97;11.17;;;22.30;71.10;;;;;;5090982;28;20198;-92
2022/07/12 06:50:01;;;;;;;18.20;10.77;;;22.40;71.00;;;;;;5112215;28;20217;-92
2022/07/12 06:52:35;;;;;;;23.10;12.03;;;22.50;71.40;;;;;;5111281;28;20205;-89
2022/07/12 06:55:04;;;;;;;17.00;10.63;;;22.50;71.60;;;;;;5110587;28;20206;-89
2022/07/12 07:00:38;;;;;;;15.37;8.97;;;22.70;71.60;;;;;;5110884;28;20739;-89
2022/07/12 07:03:07;;;;;;;13.73;8.77;;;22.80;71.00;;;;;;5109525;28;20217;-90
2022/07/12 07:05:37;;;;;;;15.23;9.27;;;22.80;70.60;;;;;;5109475;28;20205;-89
2022/07/12 07:08:05;;;;;;;16.33;9.27;;;22.90;70.40;;;;;;5110047;28;20209;-90
2022/07/12 07:11:00;;;;;;;19.13;10.60;;;23.00;70.30;;;;;;5110785;28;20206;-90
2022/07/12 07:13:27;;;;;;;15.90;9.10;;;23.10;70.20;;;;;;5110705;28;20206;-89
2022/07/12 07:16:14;;;;;;;14.17;8.47;;;23.20;69.80;;;;;;5113902;28;20271;-91
2022/07/12 07:19:00;;;;;;;15.20;9.23;;;23.30;70.00;;;;;;5116865;28;20213;-91
2022/07/12 07:21:27;;;;;;;13.90;8.83;;;23.30;69.80;;;;;;5124794;28;20212;-91
2022/07/12 07:23:54;;;;;;;15.10;9.03;;;23.40;69.40;;;;;;5120019;28;20267;-91
2022/07/12 07:26:22;;;;;;;20.77;9.57;;;23.50;69.50;;;;;;5113395;28;20218;-92
2022/07/12 07:31:38;;;;;;;17.77;10.40;;;23.70;68.90;;;;;;5110521;28;20223;-90
2022/07/12 07:34:05;;;;;;;22.17;9.53;;;23.80;68.90;;;;;;5089959;28;20273;-91
2022/07/12 07:36:32;;;;;;;14.40;9.43;;;23.90;68.80;;;;;;5090491;28;20622;-89
2022/07/12 07:39:00;;;;;;;15.70;9.17;;;23.90;68.80;;;;;;5090015;28;20748;-90
2022/07/12 07:41:27;;;;;;;16.30;9.73;;;24.00;68.70;;;;;;5089613;28;20266;-90
2022/07/12 07:43:54;;;;;;;14.93;9.53;;;24.10;68.20;;;;;;5089254;28;20207;-89
2022/07/12 07:46:21;;;;;;;16.63;9.90;;;24.20;68.20;;;;;;5090541;28;20251;-90
2022/07/12 07:48:50;;;;;;;14.23;9.20;;;24.30;68.30;;;;;;5094352;28;20201;-90
2022/07/12 07:51:17;;;;;;;19.73;10.97;;;24.40;67.80;;;;;;5112297;28;20229;-90
2022/07/12 07:54:02;;;;;;;13.60;9.73;;;24.40;67.70;;;;;;5110450;28;20225;-90
2022/07/12 07:56:30;;;;;;;16.00;9.70;;;24.50;67.30;;;;;;5109543;28;20203;-91
2022/07/12 07:59:02;;;;;;;13.20;8.53;;;24.60;67.30;;;;;;5106726;28;20641;-90
2022/07/12 08:01:44;;;;;;;19.50;10.07;;;24.70;66.80;;;;;;5113034;28;20986;-90
2022/07/12 08:04:13;;;;;;;16.87;10.53;;;24.80;66.70;;;;;;5112603;28;20612;-91
2022/07/12 08:06:42;;;;;;;14.93;10.00;;;24.90;66.40;;;;;;5109111;28;20253;-90
2022/07/12 08:09:10;;;;;;;14.70;9.63;;;25.00;66.40;;;;;;5109059;28;20213;-89
2022/07/12 08:11:37;;;;;;;15.63;10.27;;;25.00;66.30;;;;;;5109827;28;20217;-90
2022/07/12 08:14:08;;;;;;;22.20;11.23;;;25.10;66.30;;;;;;5106184;28;20219;-89
2022/07/12 08:16:36;;;;;;;20.27;11.57;;;25.20;66.20;;;;;;5109877;28;20206;-91
2022/07/12 08:19:04;;;;;;;13.80;8.67;;;25.30;66.00;;;;;;5114539;28;20204;-87
2022/07/12 08:21:32;;;;;;;19.80;9.97;;;25.40;65.70;;;;;;5112922;28;20210;-87
2022/07/12 08:24:00;;;;;;;14.60;8.70;;;25.40;65.30;;;;;;5113443;28;20550;-89
2022/07/12 08:26:32;;;;;;;13.47;9.57;;;25.50;65.80;;;;;;5109814;28;20206;-91
2022/07/12 08:29:23;;;;;;;11.27;7.97;;;25.60;65.00;;;;;;5108634;28;20206;-89
2022/07/12 08:32:05;;;;;;;;;;;;;;;;;;;;;
2022/07/12 08:34:33;;;;;;;14.70;9.03;;;25.80;64.90;;;;;;5099874;28;20205;-91
2022/07/12 08:37:16;;;;;;;12.23;7.70;;;25.90;64.20;;;;;;5107090;28;20254;-95
2022/07/12 08:39:43;;;;;;;11.60;7.73;;;26.00;63.40;;;;;;5090989;28;21080;-93
2022/07/12 08:42:16;;;;;;;16.17;8.67;;;26.10;63.10;;;;;;5103669;28;20658;-92
2022/07/12 08:44:43;;;;;;;10.00;6.23;;;26.30;62.80;;;;;;5106445;28;20206;-90
2022/07/12 08:47:10;;;;;;;12.40;7.67;;;26.30;63.70;;;;;;5108848;28;20678;-93
2022/07/12 08:49:38;;;;;;;13.77;7.67;;;26.50;63.10;;;;;;5106673;28;20205;-90
2022/07/12 08:52:25;;;;;;;15.70;9.47;;;26.70;62.50;;;;;;5106385;28;20685;-91
2022/07/12 08:54:52;;;;;;;12.10;7.83;;;26.80;61.00;;;;;;5096917;28;20283;-90
2022/07/12 08:57:30;;;;;;;12.07;7.57;;;27.00;61.70;;;;;;5108712;28;20267;-91
2022/07/12 09:00:01;;;;;;;12.93;7.20;;;27.20;60.20;;;;;;5108853;28;20306;-89
2022/07/12 09:02:28;;;;;;;21.33;11.13;;;27.50;60.10;;;;;;5106414;28;20983;-92
2022/07/12 09:05:08;;;;;;;15.17;7.90;;;27.70;60.40;;;;;;5107293;28;20198;-91
2022/07/12 09:07:37;;;;;;;17.70;8.90;;;27.90;59.40;;;;;;5098573;28;20198;-91
2022/07/12 09:10:06;;;;;;;13.90;7.67;;;28.10;60.60;;;;;;5104954;28;20206;-91
2022/07/12 09:12:36;;;;;;;16.50;8.60;;;28.30;59.70;;;;;;5106952;28;20205;-92
2022/07/12 09:15:17;;;;;;;12.00;8.17;;;28.50;59.10;;;;;;5100332;28;20705;-92
2022/07/12 09:17:57;;;;;;;13.13;8.63;;;28.80;58.10;;;;;;5090160;28;20217;-92
2022/07/12 09:20:25;;;;;;;10.80;8.07;;;29.10;57.90;;;;;;5100715;28;20317;-91
2022/07/12 09:22:55;;;;;;;17.37;9.27;;;29.30;57.70;;;;;;5093676;28;20748;-91
2022/07/12 09:25:25;;;;;;;13.87;8.27;;;29.40;57.30;;;;;;5108305;28;20215;-89
2022/07/12 09:27:54;;;;;;;15.50;8.00;;;29.60;56.40;;;;;;5103712;28;20221;-91
2022/07/12 09:30:23;;;;;;;8.83;6.37;;;29.70;56.70;;;;;;5101214;28;20675;-90
2022/07/12 09:36:08;;;;;;;13.13;7.50;;;30.00;56.00;;;;;;5074084;28;20620;-90
2022/07/12 09:38:38;;;;;;;16.97;7.93;;;30.20;55.40;;;;;;5099788;28;20194;-90
2022/07/12 09:41:05;;;;;;;10.03;6.00;;;30.40;55.30;;;;;;5107682;28;20316;-89
2022/07/12 09:43:33;;;;;;;11.25;6.72;;;30.60;54.80;;;;;;5106017;28;20891;-92
2022/07/12 09:46:01;;;;;;;10.13;5.75;;;30.70;55.10;;;;;;5106162;28;20202;-91
2022/07/12 09:48:29;;;;;;;9.02;5.32;;;30.90;54.40;;;;;;5109015;28;20270;-89
2022/07/12 09:50:58;;;;;;;9.50;5.50;;;31.10;54.50;;;;;;5106740;28;20202;-89
2022/07/12 09:53:29;;;;;;;8.57;5.00;;;31.20;54.40;;;;;;5105326;28;20202;-89
2022/07/12 09:55:58;;;;;;;7.40;4.95;;;31.40;53.10;;;;;;5105568;28;20198;-90
2022/07/12 09:58:28;;;;;;;8.00;5.10;;;31.60;52.60;;;;;;5107912;28;20214;-91
2022/07/12 10:01:00;;;;;;;12.55;6.30;;;31.70;52.60;;;;;;5099045;28;20278;-89
2022/07/12 10:03:31;;;;;;;9.88;5.63;;;31.90;51.70;;;;;;5105197;28;20254;-89
2022/07/12 10:06:01;;;;;;;7.70;4.38;;;32.10;52.00;;;;;;5111437;28;20202;-89
2022/07/12 10:08:30;;;;;;;10.23;5.82;;;32.20;52.00;;;;;;5102674;28;20638;-89
2022/07/12 10:10:59;;;;;;;7.70;4.97;;;32.40;51.80;;;;;;5107586;28;20269;-89
2022/07/12 10:13:27;;;;;;;9.90;5.85;;;32.50;50.80;;;;;;5107448;28;20206;-90
2022/07/12 10:15:59;;;;;;;6.65;4.05;;;32.70;50.50;;;;;;5107072;28;20202;-90
2022/07/12 10:18:26;;;;;;;9.98;5.65;;;32.80;49.30;;;;;;5106062;28;20289;-89
2022/07/12 10:20:53;;;;;;;7.32;4.40;;;32.90;49.70;;;;;;5108884;28;20345;-90
2022/07/12 10:23:44;;;;;;;7.88;5.20;;;33.10;49.50;;;;;;5106810;28;20767;-88
2022/07/12 10:26:39;;;;;;;11.95;4.85;;;33.20;47.00;;;;;;5077922;28;20964;-89
2022/07/12 10:29:10;;;;;;;9.75;5.20;;;33.40;48.00;;;;;;5077213;28;20222;-92
2022/07/12 10:31:39;;;;;;;8.93;5.65;;;33.50;48.20;;;;;;5100990;28;20687;-89
2022/07/12 10:34:21;;;;;;;6.97;4.75;;;33.60;47.50;;;;;;5104233;28;20194;-89
2022/07/12 10:37:12;;;;;;;6.50;4.40;;;33.70;46.30;;;;;;5096078;28;20258;-90
2022/07/12 10:39:40;;;;;;;12.40;6.00;;;33.80;46.40;;;;;;5096006;28;20221;-87
2022/07/12 10:42:19;;;;;;;8.63;5.32;;;33.90;47.20;;;;;;5115851;28;20289;-88
2022/07/12 10:44:49;;;;;;;11.65;5.40;;;34.00;45.60;;;;;;5104350;28;20236;-89
2022/07/12 10:47:18;;;;;;;7.15;4.57;;;34.10;45.70;;;;;;5103419;28;20205;-88
2022/07/12 10:49:52;;;;;;;12.02;7.15;;;34.10;45.90;;;;;;5109239;28;20199;-89
2022/07/12 10:52:28;;;;;;;6.10;4.10;;;34.20;44.50;;;;;;5110961;28;20220;-90
2022/07/12 10:55:17;;;;;;;7.57;4.72;;;34.30;44.40;;;;;;5111737;27;20257;-89
2022/07/12 10:57:51;;;;;;;7.80;5.10;;;34.30;44.00;;;;;;5117130;28;20206;-87
2022/07/12 11:00:19;;;;;;;7.40;4.45;;;34.30;44.30;;;;;;5120277;28;20205;-89
2022/07/12 11:02:47;;;;;;;7.50;4.15;;;34.30;44.60;;;;;;5117110;28;20623;-92
2022/07/12 11:05:15;;;;;;;5.55;3.35;;;34.30;44.20;;;;;;5105563;28;20237;-88
2022/07/12 11:07:42;;;;;;;7.30;4.07;;;34.30;43.10;;;;;;5094512;28;20226;-88
2022/07/12 11:10:13;;;;;;;10.57;5.25;;;34.30;43.30;;;;;;5110789;28;20646;-89
2022/07/12 11:12:40;;;;;;;7.32;3.92;;;34.30;42.90;;;;;;5104653;28;20201;-88
2022/07/12 11:15:09;;;;;;;5.90;3.53;;;34.20;43.40;;;;;;5106301;28;20202;-89
2022/07/12 11:17:36;;;;;;;5.93;3.75;;;34.30;43.00;;;;;;5110815;28;20213;-91
2022/07/12 11:20:09;;;;;;;7.47;4.38;;;34.30;42.90;;;;;;5109459;28;20707;-89
2022/07/12 11:22:37;;;;;;;10.18;5.45;;;34.30;42.80;;;;;;5112669;28;20213;-88
2022/07/12 11:25:05;;;;;;;10.80;5.65;;;34.30;43.00;;;;;;5102194;28;20207;-89
2022/07/12 11:27:32;;;;;;;6.95;4.03;;;34.40;43.10;;;;;;5104540;28;20226;-89
2022/07/12 11:30:00;;;;;;;6.20;3.60;;;34.40;43.50;;;;;;5109913;28;20249;-88
2022/07/12 11:32:41;;;;;;;6.65;3.80;;;34.40;43.00;;;;;;5109801;28;20222;-88
2022/07/12 11:35:21;;;;;;;5.45;3.55;;;34.50;41.50;;;;;;5110496;28;20209;-90
2022/07/12 11:37:53;;;;;;;11.90;5.85;;;34.50;40.80;;;;;;5110149;28;20208;-93
2022/07/12 11:40:28;;;;;;;7.22;4.28;;;34.60;41.00;;;;;;5108736;28;20214;-88
2022/07/12 11:42:58;;;;;;;7.93;3.90;;;34.50;40.80;;;;;;5104944;28;20199;-90
2022/07/12 11:45:26;;;;;;;5.57;3.70;;;34.60;40.80;;;;;;5104036;28;20650;-90
2022/07/12 11:47:54;;;;;;;8.93;4.07;;;34.60;40.30;;;;;;5108837;28;20663;-93
2022/07/12 11:50:24;;;;;;;8.57;4.38;;;34.60;39.80;;;;;;5108695;28;20643;-89
2022/07/12 11:52:51;;;;;;;5.00;3.03;;;34.60;39.20;;;;;;5109979;28;20262;-91
2022/07/12 11:55:18;;;;;;;11.85;5.72;;;34.60;39.10;;;;;;5106766;28;20210;-88
2022/07/12 11:57:46;;;;;;;8.00;4.07;;;34.60;38.90;;;;;;5109684;28;20248;-93
2022/07/12 12:00:20;;;;;;;11.93;4.80;;;34.60;39.10;;;;;;5108546;28;20214;-92
2022/07/12 12:02:51;;;;;;;10.88;5.65;;;34.60;38.20;;;;;;5104385;28;20609;-90
2022/07/12 12:05:20;;;;;;;8.25;4.70;;;34.60;39.00;;;;;;5108077;28;20968;-88
2022/07/12 12:07:48;;;;;;;6.10;3.30;;;34.60;39.50;;;;;;5108927;28;20830;-90
2022/07/12 12:10:17;;;;;;;8.20;4.43;;;34.60;39.70;;;;;;5105690;28;20242;-89
2022/07/12 12:12:48;;;;;;;5.63;3.30;;;34.60;39.70;;;;;;5098670;28;20206;-90
2022/07/12 12:15:16;;;;;;;9.02;3.55;;;34.70;39.50;;;;;;5105994;28;20618;-90
2022/07/12 12:17:53;;;;;;;9.13;4.82;;;34.70;39.20;;;;;;5105361;28;20198;-87
2022/07/12 12:20:23;;;;;;;6.38;3.40;;;34.80;38.20;;;;;;5098511;28;20201;-89
2022/07/12 12:22:53;;;;;;;7.53;3.63;;;34.90;38.60;;;;;;5089358;28;20207;-91
2022/07/12 12:25:21;;;;;;;9.77;4.78;;;35.00;38.40;;;;;;5104675;28;20201;-91
2022/07/12 12:28:25;;;;;;;6.50;3.78;;;35.10;38.10;;;;;;5109191;28;20213;-92
2022/07/12 12:30:54;;;;;;;6.65;3.17;;;35.20;37.30;;;;;;5108543;28;20222;-90
2022/07/12 12:33:38;;;;;;;9.45;4.30;;;35.40;37.60;;;;;;5107944;28;20262;-91
2022/07/12 12:36:23;;;;;;;10.55;5.18;;;35.40;36.70;;;;;;5108055;28;20202;-89
2022/07/12 12:38:54;;;;;;;5.47;3.50;;;35.50;37.10;;;;;;5088627;28;20202;-89
2022/07/12 12:41:22;;;;;;;7.32;4.35;;;35.50;37.20;;;;;;5107871;28;20226;-88
2022/07/12 12:43:58;;;;;;;5.65;3.30;;;35.60;37.10;;;;;;5105485;28;20285;-88
2022/07/12 12:46:46;;;;;;;8.75;4.80;;;35.60;36.70;;;;;;5104003;28;20263;-88
2022/07/12 12:49:13;;;;;;;10.93;5.53;;;35.70;36.00;;;;;;5108150;28;20286;-89
2022/07/12 12:51:55;;;;;;;6.05;3.83;;;35.80;37.30;;;;;;5088879;28;20214;-88
2022/07/12 12:54:33;;;;;;;9.75;5.40;;;35.90;35.30;;;;;;5105374;28;20206;-87
2022/07/12 12:57:00;;;;;;;4.97;3.17;;;36.00;35.80;;;;;;5105937;28;20683;-89
2022/07/12 12:59:30;;;;;;;4.18;2.55;;;36.10;36.80;;;;;;5107765;28;20278;-91
2022/07/12 13:01:57;;;;;;;5.22;2.95;;;36.20;34.10;;;;;;5106156;28;20229;-87
2022/07/12 13:04:29;;;;;;;14.32;5.72;;;36.30;34.50;;;;;;5104284;28;20197;-88
2022/07/12 13:07:11;;;;;;;5.43;3.20;;;36.40;33.90;;;;;;5089908;28;20249;-89
2022/07/12 13:09:40;;;;;;;6.93;4.03;;;36.40;32.90;;;;;;5103418;28;20198;-90
2022/07/12 13:12:07;;;;;;;6.75;3.28;;;36.50;33.40;;;;;;5109031;28;20237;-87
2022/07/12 13:14:35;;;;;;;7.13;3.88;;;36.60;33.20;;;;;;5107681;28;20209;-88
2022/07/12 13:17:02;;;;;;;5.63;2.65;;;36.60;33.00;;;;;;5112766;28;20229;-90
2022/07/12 13:19:31;;;;;;;5.68;3.42;;;36.70;32.80;;;;;;5107888;28;20234;-88
2022/07/12 13:22:00;;;;;;;6.82;3.25;;;36.70;32.50;;;;;;5107886;28;20222;-90
2022/07/12 13:24:27;;;;;;;5.03;2.88;;;36.70;32.40;;;;;;5106011;28;20710;-88
2022/07/12 13:26:54;;;;;;;9.48;3.38;;;36.80;32.90;;;;;;5107205;28;20308;-89
2022/07/12 13:29:21;;;;;;;6.50;3.20;;;36.90;33.10;;;;;;5107712;28;20238;-89
2022/07/12 13:31:48;;;;;;;6.22;3.53;;;36.90;32.90;;;;;;5104611;28;20284;-88